Anthony Simmons

Olheiro-Chefe - Birmingham
17 Jul 2027
Sábado
Processo

Personalidade

Adaptabilidade (4) Ambição (13) Controvérsia (7) Lealdade (2) Pressão (1) Profissionalismo (7) Espírito Esportivo (9) Temperamento (7)

Perfil

Estilo de Treinamento Democrático
Licença Continental Pro
Determinação 10
Gestão de Pessoas 6
Motivação 7
Disciplina 7
Satisfação no Trabalho
56%
Fadiga
0%
Função Olheiro-Chefe
Salário 12.9K p/s
Contrato 14.03.2028

Desempenho

Comportamento Bom
Eficácia do Treinamento
15%
Desenvolvimento do Jogador
20%
Prevenção de Lesões
20%
Implementação Tática
25%

Eventos Recentes

Aniversário agora
Participou de uma reunião de recrutamento agora
Recomendou um alvo de transferência agora
Recomendou um alvo de transferência agora
Recomendou um alvo de transferência 7d atrás
Recomendou um alvo de transferência 7d atrás
Recomendou um alvo de transferência 7d atrás
Recomendou um alvo de transferência 7d atrás

Monitorando agora

165
Jogador Clube Status Habilidade Confiança Observado Última observação Último voto
Mao Hosoya Manchester City Ativo 134 / 135 67% 1 01.06.2027 Aprovar
Konstantin Tyukavin Arsenal Relatório pronto 132 / 133 66% 1 01.06.2027 -
Caio Vidal FC Copenhagen Negociando 128 / 129 63% 1 01.06.2027 -
Pietro Reggiori Pro Patria Ativo 90 / 98 40% 2 31.05.2027 -
Welington Southampton Ativo 123 / 119 40% 3 30.05.2027 -
Shea Charles Southampton Ativo 129 / 147 40% 3 30.05.2027 -
Jonathan De Irastorza Levante Ativo 122 / 139 40% 1 30.05.2027 -
Ethan Galbraith Swansea City Ativo 138 / 139 40% 8 28.05.2027 -
Jacob Greaves Ipswich Town Ativo 145 / 138 40% 6 28.05.2027 -
Harry Clarke Preston Ativo 124 / 126 40% 3 26.05.2027 -
Bosun Lawal Stoke City Ativo 135 / 124 40% 2 26.05.2027 -
Tyrell Malacia Derby County Ativo 135 / 127 40% 6 25.05.2027 -
Juan David Arizala Udinese Ativo 130 / 135 40% 1 25.05.2027 -
Martim Cunha Porto Ativo 96 / 96 40% 1 25.05.2027 -
Oliver Skipp Leicester City Ativo 134 / 139 40% 4 23.05.2027 -
Issa Yusuf Shooting Stars Ativo 91 / 95 40% 2 22.05.2027 -
Álex Valle Como Ativo 139 / 143 40% 1 22.05.2027 -
Sascha Britschgi Catanzaro Ativo 110 / 136 40% 1 21.05.2027 -
Sam Curtis Swindon Town Ativo 96 / 93 40% 4 20.05.2027 -
Milan van Ewijk Coventry City Ativo 135 / 146 40% 5 18.05.2027 -
Yehor Yarmoliuk Brentford Ativo 158 / 147 40% 2 18.05.2027 -
Callum Doyle Wrexham Ativo 132 / 124 40% 3 17.05.2027 -
Trevoh Chalobah Como Ativo 160 / 142 40% 4 16.05.2027 -
Jonathan Bland Barnsley Ativo 95 / 103 40% 2 16.05.2027 -
T-Jay Parfitt Cardiff City Ativo 97 / 105 40% 1 14.05.2027 -
Lucas Bergvall Tottenham Ativo 143 / 160 40% 2 13.05.2027 -
Nathan Collins Brentford Ativo 146 / 158 40% 4 11.05.2027 -
Dayann Methalie Everton Ativo 140 / 120 40% 1 11.05.2027 -
Christos Mouzakitis Hull City Ativo 122 / 126 40% 2 08.05.2027 -
Enzo Barrenechea Burnley Ativo 144 / 137 40% 2 07.05.2027 -
Roger François Udinese Ativo 147 / 148 40% 1 07.05.2027 -
Ben Nelson Leicester City Ativo 135 / 122 40% 1 04.05.2027 -
Jofre Torrents Ajax Ativo 122 / 128 40% 2 03.05.2027 -
Luke McNally Bristol City Ativo 138 / 132 40% 2 03.05.2027 -
Brooke Norton-Cuffy Hull City Ativo 134 / 140 40% 5 01.05.2027 -
Abraham Paintsil Hasaacas Ativo 103 / 116 40% 1 29.04.2027 -
Joel McGregor Swindon Town Ativo 98 / 84 40% 1 29.04.2027 -
Tim Iroegbunam Hull City Ativo 140 / 154 40% 4 28.04.2027 -
Ryan Sessegnon Fulham Ativo 148 / 147 40% 2 28.04.2027 -
Ramón Terrats Getafe Ativo 140 / 133 40% 4 25.04.2027 -
Juanlu Bournemouth Ativo 147 / 138 40% 3 24.04.2027 -
Florentino Luís Ipswich Town Ativo 143 / 141 40% 4 24.04.2027 -
David Ozoh Derby County Ativo 126 / 111 40% 2 24.04.2027 -
Surprise Manthosi Polokwane City Ativo 88 / 84 40% 1 24.04.2027 -
Daniel Kelly Derby County Ativo 101 / 114 40% 3 23.04.2027 -
Leonardo Mendicino Bari Ativo 119 / 127 40% 1 22.04.2027 -
Alex Scott Bournemouth Ativo 145 / 159 40% 6 20.04.2027 -
Nobel Mendy Hull City Ativo 131 / 128 40% 1 19.04.2027 -
Eivind Helland Bologna Ativo 123 / 124 40% 1 18.04.2027 -
Rico Lewis Manchester City Ativo 155 / 155 40% 2 13.04.2027 -
Max Johnston Derby County Ativo 119 / 116 40% 1 12.04.2027 -
Bobby Thomas Coventry City Ativo 124 / 127 40% 3 08.04.2027 -
Riquelme Thompson-Jones Shrewsbury Town Ativo 94 / 113 40% 2 07.04.2027 -
Edoardo Bove Watford Ativo 139 / 146 40% 4 04.04.2027 -
Adam Randell Bristol City Ativo 120 / 126 40% 3 03.04.2027 -
Miguel Figueiredo Benfica Ativo 117 / 130 40% 1 02.04.2027 -
Adrien Truffert Bournemouth Ativo 154 / 143 40% 7 01.04.2027 -
Imrân Louza Watford Ativo 121 / 126 40% 5 29.03.2027 -
Mohammed Wakaso Hasaacas Ativo 103 / 106 40% 2 27.03.2027 -
Dylan Lawlor Cardiff City Ativo 122 / 116 40% 2 27.03.2027 -
Michael Kayode Brentford Ativo 149 / 152 40% 1 25.03.2027 -
Lewis Gibson Preston Ativo 119 / 111 40% 1 24.03.2027 -
Neco Williams Nottingham Forest Ativo 139 / 131 40% 3 21.03.2027 -
Jaydee Canvot Liverpool Ativo 142 / 132 40% 1 21.03.2027 -
Bakary Haïdara Hearts of Oak Ativo 94 / 120 40% 1 19.03.2027 -
Riley Owen Wycombe Wanderers Ativo 94 / 112 40% 1 19.03.2027 -
Maeson King Blackpool Ativo 109 / 112 40% 2 18.03.2027 -
James Dornelly Peterborough United Ativo 93 / 99 40% 1 16.03.2027 -
André Wolverhampton Ativo 155 / 155 40% 3 14.03.2027 -
Aidan Morris Middlesbrough Ativo 126 / 131 40% 1 12.03.2027 -
Jordan Beyer Burnley Ativo 129 / 128 40% 1 10.03.2027 -
Ethan Ampadu Leeds United Ativo 153 / 152 40% 1 10.03.2027 -
Chema Andrés Liverpool Ativo 126 / 147 40% 1 08.03.2027 -
Nico O'Reilly Manchester City Ativo 143 / 158 40% 1 08.03.2027 -
Alfie Doughty Millwall Ativo 119 / 134 40% 1 06.03.2027 -
Tariq Lamptey Queens Park Rangers Ativo 133 / 141 40% 4 28.02.2027 -
António Silva Bournemouth Ativo 136 / 149 40% 2 18.02.2027 -
Dara O'Shea Ipswich Town Ativo 133 / 147 40% 1 13.02.2027 -
Christian Krasnodar Ativo 150 / 135 40% 1 01.02.2027 -
Loum Tchaouna Coventry City Ativo 132 / 131 40% 1 25.01.2027 -
Julio Enciso Ipswich Town Ativo 139 / 146 40% 1 25.01.2027 -
Tyler Adams Bournemouth Ativo 161 / 160 40% 1 23.01.2027 -
Jacques Ekomié Wrexham Ativo 119 / 126 40% 1 21.01.2027 -
Nathan Broadhead Wrexham Ativo 132 / 132 62% 1 06.01.2027 Aprovar
Pedro de la Vega Leganés Ativo 133 / 134 66% 1 01.01.2027 Aprovar
Adnan Carrasco FC Nantes Negociando 151 / 156 64% 1 01.01.2027 Aprovar
Adrian Dragusin CFR Cluj Negociando 141 / 142 63% 1 01.01.2027 -
Dom Ballard Leyton Orient Ativo 129 / 124 40% 4 30.12.2026 -
Etiosa Ighodaro Kaizer Chiefs Ativo 123 / 119 40% 1 30.12.2026 -
Yousef Salech Cardiff City Ativo 126 / 110 40% 3 29.12.2026 -
Tommy Conway Middlesbrough Ativo 123 / 114 40% 4 29.12.2026 -
Lamine Cissé Peterborough United Ativo 128 / 121 40% 2 27.12.2026 -
Jack Vale Spartak Myjava Ativo 91 / 87 40% 2 26.12.2026 -
Chemsdine Talbi Sunderland Ativo 146 / 150 40% 1 26.12.2026 -
Jack Rudoni Coventry City Ativo 132 / 148 40% 1 26.12.2026 -
Koki Saito Queens Park Rangers Ativo 134 / 134 40% 1 25.12.2026 -
Assane Diao Como Ativo 154 / 147 40% 2 23.12.2026 -
Reda Khadra Qarabag Ativo 129 / 143 40% 1 22.12.2026 -
Jerome Karelse Golden Arrows Ativo 105 / 97 40% 3 21.12.2026 -
Jeffrey Adjei Wa All Stars Ativo 81 / 84 40% 1 19.12.2026 -
Rodrigo Muniz Fulham Ativo 149 / 141 40% 6 18.12.2026 -
Ilyas Ansah Hull City Ativo 138 / 145 40% 3 18.12.2026 -
Luther Tau SuperSport United Ativo 97 / 124 40% 4 17.12.2026 -
Bojan Radulović Huddersfield Town Ativo 111 / 109 40% 2 15.12.2026 -
Amine Adli Bournemouth Ativo 139 / 150 40% 2 15.12.2026 -
Gianluca Scamacca Atalanta Ativo 158 / 147 40% 1 15.12.2026 -
Mathias Kvistgaarden Norwich City Ativo 130 / 132 40% 1 12.12.2026 -
Gonzalo Fulham Ativo 134 / 136 40% 1 12.12.2026 -
Wandile Duba Maritzburg United Ativo 107 / 83 40% 2 11.12.2026 -
Rumarn Burrell Queens Park Rangers Ativo 132 / 131 40% 1 11.12.2026 -
El Hadji Malick Diouf Brentford Ativo 137 / 131 40% 1 11.12.2026 -
Tom Fellows Southampton Ativo 119 / 139 40% 1 10.12.2026 -
Enzo Le Fée Sunderland Ativo 135 / 139 40% 1 08.12.2026 -
Camilo Durán Bloemfontein Celtic Ativo 134 / 115 40% 3 04.12.2026 -
Ammar Ramadan DAC Dunajska Streda Ativo 123 / 144 40% 1 02.12.2026 -
Adrien Thibaut Segesta Ativo 82 / 107 40% 1 01.12.2026 -
Kelvin Yeboah Minnesota United FC Ativo 139 / 114 40% 5 30.11.2026 -
Andre Brooks Sheffield United Ativo 128 / 120 40% 1 28.11.2026 -
Fábio Carvalho Brentford Ativo 135 / 130 40% 2 26.11.2026 -
Jeremiah Okine-Peters Textilschik Ativo 77 / 90 40% 2 26.11.2026 -
Adam Idah Swansea City Ativo 119 / 109 40% 1 26.11.2026 -
Jack McGlynn Stoke City Ativo 119 / 131 40% 1 25.11.2026 -
Noah Sadiki Sunderland Ativo 135 / 158 40% 1 24.11.2026 -
Zeki Amdouni Burnley Ativo 133 / 145 40% 1 21.11.2026 -
Aaron Connolly Ruch Ativo 109 / 106 40% 3 20.11.2026 -
Mihailo Ivanović Millwall Ativo 128 / 126 40% 1 19.11.2026 -
Tomás Chancalay Minnesota United FC Ativo 137 / 132 40% 3 16.11.2026 -
Luca Langoni New England Revolution Ativo 115 / 123 40% 3 16.11.2026 -
Marin Benko Zadar Ativo 125 / 110 40% 1 15.11.2026 -
Dejan Joveljić Seattle Sounders Ativo 122 / 114 40% 2 14.11.2026 -
Jovon Makama Norwich City Ativo 117 / 130 40% 2 14.11.2026 -
Jesus Ferreira Seattle Sounders Ativo 140 / 121 40% 2 12.11.2026 -
Andile Manyama Ajax Cape Town Ativo 95 / 120 40% 1 07.11.2026 -
Gabriel Pirani San Diego Football Club Ativo 127 / 111 40% 1 06.11.2026 -
Bénie Traoré New York City Ativo 123 / 108 40% 1 04.11.2026 -
Liel Abada Charlotte Football Club Ativo 123 / 153 40% 2 03.11.2026 -
Dávid Strelec Middlesbrough Ativo 138 / 136 40% 1 12.10.2026 -
Leonardo Campana New England Revolution Ativo 136 / 118 40% 3 10.10.2026 -
Liam Delap Nottingham Forest Ativo 136 / 134 40% 2 09.10.2026 -
Jeong Sang-Bin St. Louis CITY SC Ativo 121 / 102 40% 1 09.10.2026 -
Richard Koné Queens Park Rangers Ativo 115 / 135 40% 1 07.10.2026 -
Kévin Denkey FC Cincinnati Ativo 125 / 109 40% 2 03.10.2026 -
Igor Jesus Nottingham Forest Ativo 136 / 157 40% 1 01.10.2026 -
Timothy Zechariah Rivers United Ativo 112 / 74 40% 1 30.09.2026 -
Alexander Aravena Portland Timbers Ativo 129 / 105 40% 1 27.09.2026 -
George Hirst Stoke City Ativo 128 / 124 40% 1 26.09.2026 -
Kevin Schade Brentford Ativo 152 / 162 40% 1 25.09.2026 -
Victor Olatunji Real Salt Lake Ativo 111 / 114 40% 1 25.09.2026 -
Thiago Brentford Ativo 140 / 156 40% 1 23.09.2026 -
Rafael Navarro St. Louis CITY SC Ativo 116 / 119 40% 1 20.09.2026 -
Tyrese Campbell Sheffield United Ativo 132 / 118 40% 1 18.09.2026 -
Talles Magno New York City Ativo 121 / 111 40% 1 17.09.2026 -
Tadeo Allende Inter Miami CF Ativo 116 / 108 40% 1 17.09.2026 -
Duncan McGuire Houston Dynamo Ativo 125 / 112 40% 3 16.09.2026 -
Aaron Hickey Brentford Ativo 151 / 156 40% 1 13.09.2026 -
Riqui Puig LA Galaxy Ativo 146 / 153 40% 1 13.09.2026 -
Brandon Vázquez Austin FC Ativo 129 / 131 40% 2 11.09.2026 -
Tyger Smalls Charlotte Football Club Ativo 81 / 94 40% 1 09.09.2026 -
Darren Yapi Colorado Rapids Ativo 107 / 88 40% 1 07.09.2026 -
Louis Thompson Stevenage Ativo 108 / 117 62% 1 31.08.2026 Aprovar
Derek Mazou-Sacko Millwall Ativo 106 / 128 40% 2 28.08.2026 -
Emmanuel Mathias Ikorodu City Ativo 105 / 123 40% 1 28.08.2026 -
Luther Ngcobo Ajax Cape Town Ativo 82 / 105 40% 2 27.08.2026 -
Philippe Ndinga Philadelphia Union Ativo 103 / 140 40% 1 17.08.2026 -
Mauricio Amaro Atlanta United FC Ativo 126 / 139 40% 1 16.08.2026 -